createdAt,value
2022-10-31T00:01:30.015Z,5.57
2022-10-31T00:03:57.237Z,5.80
2022-10-31T00:06:24.850Z,4.43
2022-10-31T00:09:01.707Z,4.85
2022-10-31T00:11:29.183Z,5.18
2022-10-31T00:13:56.340Z,5.07
2022-10-31T00:16:26.639Z,4.13
2022-10-31T00:19:00.505Z,5.80
2022-10-31T00:21:28.914Z,6.50
2022-10-31T00:23:56.068Z,4.88
2022-10-31T00:26:23.221Z,3.67
2022-10-31T00:28:50.397Z,6.13
2022-10-31T00:31:18.018Z,4.78
2022-10-31T00:33:45.362Z,4.63
2022-10-31T00:36:16.708Z,5.20
2022-10-31T00:38:45.119Z,5.45
2022-10-31T00:41:14.008Z,6.53
2022-10-31T00:43:41.345Z,3.72
2022-10-31T00:46:08.519Z,5.38
2022-10-31T00:48:35.756Z,4.68
2022-10-31T00:51:02.947Z,5.00
2022-10-31T00:53:29.954Z,6.57
2022-10-31T00:55:57.133Z,6.53
2022-10-31T00:58:24.317Z,4.72
2022-10-31T01:00:57.684Z,5.35
2022-10-31T01:03:31.806Z,3.28
2022-10-31T01:06:08.248Z,5.63
2022-10-31T01:08:37.905Z,5.43
2022-10-31T01:11:21.713Z,4.45
2022-10-31T01:13:51.867Z,4.50
2022-10-31T01:16:23.529Z,6.00
2022-10-31T01:18:51.309Z,4.63
2022-10-31T01:21:28.252Z,3.83
2022-10-31T01:23:56.760Z,3.58
2022-10-31T01:26:27.317Z,5.53
2022-10-31T01:28:58.281Z,3.13
2022-10-31T01:31:33.095Z,2.90
2022-10-31T01:34:00.809Z,3.40
2022-10-31T01:36:33.286Z,2.75
2022-10-31T01:39:07.884Z,4.18
2022-10-31T01:41:40.281Z,3.72
2022-10-31T01:44:16.428Z,4.15
2022-10-31T01:46:51.877Z,3.58
2022-10-31T01:49:50.644Z,3.53
2022-10-31T01:52:31.316Z,3.30
2022-10-31T01:55:07.163Z,2.72
2022-10-31T01:57:39.093Z,4.35
2022-10-31T02:02:37.510Z,2.80
2022-10-31T02:05:11.078Z,2.60
2022-10-31T02:08:30.890Z,4.03
2022-10-31T02:10:59.505Z,4.13
2022-10-31T02:13:27.295Z,2.60
2022-10-31T02:15:59.095Z,3.17
2022-10-31T02:18:30.997Z,6.38
2022-10-31T02:24:25.296Z,3.35
2022-10-31T02:27:12.804Z,2.47
2022-10-31T02:30:18.185Z,2.47
2022-10-31T02:32:53.193Z,2.65
2022-10-31T02:36:07.257Z,3.35
2022-10-31T02:39:10.841Z,3.00
2022-10-31T02:42:29.116Z,3.45
2022-10-31T02:45:02.247Z,2.50
2022-10-31T02:47:34.980Z,3.53
2022-10-31T02:50:15.309Z,5.30
2022-10-31T02:52:42.483Z,3.10
2022-10-31T02:55:27.791Z,2.67
2022-10-31T02:58:11.394Z,2.60
2022-10-31T03:01:08.591Z,2.97
2022-10-31T03:04:02.828Z,2.40
2022-10-31T03:07:30.359Z,2.75
2022-10-31T03:10:34.857Z,2.60
2022-10-31T03:13:42.772Z,3.47
2022-10-31T03:16:41.835Z,3.17
2022-10-31T03:19:29.052Z,3.53
2022-10-31T03:22:20.841Z,4.93
2022-10-31T03:24:52.159Z,3.20
2022-10-31T03:27:26.715Z,2.75
2022-10-31T03:30:04.080Z,3.83
2022-10-31T03:32:51.185Z,3.08
2022-10-31T03:35:22.263Z,2.63
2022-10-31T03:37:53.055Z,3.45
2022-10-31T03:40:24.540Z,3.45
2022-10-31T03:43:02.291Z,3.92
2022-10-31T03:45:32.128Z,2.85
2022-10-31T03:48:02.765Z,2.78
2022-10-31T03:50:42.826Z,2.88
2022-10-31T03:53:23.526Z,4.03
2022-10-31T03:56:19.303Z,3.15
2022-10-31T03:59:19.548Z,3.17
2022-10-31T04:01:54.276Z,2.80
2022-10-31T04:04:22.101Z,3.92
2022-10-31T04:06:51.544Z,4.18
2022-10-31T04:09:20.676Z,3.95
2022-10-31T04:11:53.325Z,4.40
2022-10-31T04:14:21.665Z,3.35
2022-10-31T04:16:48.895Z,4.07
2022-10-31T04:19:16.559Z,3.15
2022-10-31T04:21:44.460Z,2.95
2022-10-31T04:24:12.138Z,2.97
2022-10-31T04:26:39.464Z,3.22
2022-10-31T04:29:06.556Z,2.58
2022-10-31T04:31:33.669Z,3.53
2022-10-31T04:34:00.823Z,5.40
2022-10-31T04:36:27.866Z,4.22
2022-10-31T04:38:55.140Z,2.80
2022-10-31T04:41:22.140Z,2.92
2022-10-31T04:43:49.535Z,2.75
2022-10-31T04:46:16.652Z,2.78
2022-10-31T04:48:43.854Z,3.90
2022-10-31T04:51:10.974Z,3.13
2022-10-31T04:53:39.241Z,2.38
2022-10-31T04:56:06.858Z,2.13
2022-10-31T04:58:33.945Z,2.15
2022-10-31T05:01:01.347Z,3.13
2022-10-31T05:03:28.563Z,2.42
2022-10-31T05:05:55.684Z,3.95
2022-10-31T05:08:22.764Z,3.05
2022-10-31T05:10:49.872Z,3.10
2022-10-31T05:13:17.124Z,2.30
2022-10-31T05:15:44.239Z,3.15
2022-10-31T05:18:11.433Z,4.43
2022-10-31T05:20:38.663Z,2.60
2022-10-31T05:23:05.673Z,3.50
2022-10-31T05:25:32.711Z,3.40
2022-10-31T05:28:00.368Z,3.17
2022-10-31T05:30:31.589Z,2.70
2022-10-31T05:32:59.712Z,2.23
2022-10-31T05:35:30.948Z,2.75
2022-10-31T05:37:59.360Z,2.53
2022-10-31T05:40:28.222Z,2.35
2022-10-31T05:42:57.236Z,2.47
2022-10-31T05:45:25.043Z,2.88
2022-10-31T05:47:59.469Z,3.00
2022-10-31T05:50:29.903Z,2.42
2022-10-31T05:53:05.867Z,2.20
2022-10-31T05:55:33.739Z,2.30
2022-10-31T05:58:01.680Z,2.20
2022-10-31T06:00:29.982Z,2.40
2022-10-31T06:03:07.066Z,2.97
2022-10-31T06:05:34.498Z,2.05
2022-10-31T06:08:02.705Z,1.80
2022-10-31T06:10:30.187Z,2.00
2022-10-31T06:12:57.512Z,1.48
2022-10-31T06:15:25.031Z,2.42
2022-10-31T06:18:04.718Z,2.35
2022-10-31T06:20:32.617Z,1.80
2022-10-31T06:23:00.140Z,1.80
2022-10-31T06:25:28.288Z,1.60
2022-10-31T06:27:57.134Z,2.13
2022-10-31T06:30:24.320Z,4.85
2022-10-31T06:32:51.616Z,2.67
2022-10-31T06:35:18.920Z,2.17
2022-10-31T06:37:54.087Z,2.28
2022-10-31T06:40:21.706Z,2.95
2022-10-31T06:42:48.919Z,3.67
2022-10-31T06:45:16.177Z,4.28
2022-10-31T06:48:15.074Z,5.45
2022-10-31T06:50:30.660Z,5.32
2022-10-31T06:52:59.623Z,2.22
2022-10-31T06:55:27.808Z,4.13
2022-10-31T06:58:03.052Z,7.20
2022-10-31T07:00:31.938Z,4.95
2022-10-31T07:03:06.823Z,3.25
2022-10-31T07:05:34.441Z,3.13
2022-10-31T07:08:05.450Z,2.83
2022-10-31T07:10:40.043Z,2.97
2022-10-31T07:13:15.046Z,3.70
2022-10-31T07:15:44.417Z,3.65
2022-10-31T07:18:13.166Z,2.25
2022-10-31T07:20:40.555Z,2.80
2022-10-31T07:23:08.485Z,2.30
2022-10-31T07:25:35.642Z,4.00
2022-10-31T07:28:03.029Z,2.92
2022-10-31T07:30:30.483Z,3.20
2022-10-31T07:32:57.738Z,2.92
2022-10-31T07:35:28.506Z,2.80
2022-10-31T07:37:55.952Z,3.33
2022-10-31T07:40:24.949Z,4.50
2022-10-31T07:42:53.796Z,2.78
2022-10-31T07:45:22.300Z,3.78
2022-10-31T07:47:53.266Z,3.03
2022-10-31T07:50:27.073Z,2.17
2022-10-31T07:53:03.113Z,2.78
2022-10-31T07:55:31.420Z,2.33
2022-10-31T07:58:04.737Z,2.45
2022-10-31T08:00:34.788Z,2.63
2022-10-31T08:03:11.129Z,2.17
2022-10-31T08:05:39.128Z,3.40
2022-10-31T08:08:07.178Z,3.03
2022-10-31T08:10:35.041Z,2.65
2022-10-31T08:13:13.645Z,2.53
2022-10-31T08:15:42.809Z,3.00
2022-10-31T08:18:15.033Z,2.33
2022-10-31T08:20:44.076Z,1.80
2022-10-31T08:23:13.097Z,3.35
2022-10-31T08:25:40.909Z,1.95
2022-10-31T08:28:10.258Z,2.38
2022-10-31T08:30:38.597Z,1.92
2022-10-31T08:33:11.608Z,3.50
2022-10-31T08:35:38.924Z,3.08
2022-10-31T08:38:06.606Z,2.40
2022-10-31T08:40:36.076Z,3.72
2022-10-31T08:43:06.610Z,3.35
2022-10-31T08:45:35.334Z,2.40
2022-10-31T08:48:05.948Z,2.53
2022-10-31T08:50:36.906Z,2.78
2022-10-31T08:53:10.728Z,2.08
2022-10-31T08:55:39.722Z,3.40
2022-10-31T08:58:11.754Z,1.80
2022-10-31T09:00:39.440Z,2.60
2022-10-31T09:03:12.385Z,2.10
2022-10-31T09:05:40.093Z,3.42
2022-10-31T09:08:14.797Z,2.55
2022-10-31T09:10:43.870Z,2.30
2022-10-31T09:13:14.734Z,4.30
2022-10-31T09:15:44.800Z,1.85
2022-10-31T09:18:14.420Z,3.10
2022-10-31T09:20:43.301Z,1.98
2022-10-31T09:23:14.444Z,2.85
2022-10-31T09:25:46.252Z,4.38
2022-10-31T09:28:19.627Z,1.70
2022-10-31T09:30:52.546Z,2.30
2022-10-31T09:33:20.404Z,3.30
2022-10-31T09:35:47.763Z,2.30
2022-10-31T09:38:20.431Z,2.35
2022-10-31T09:41:10.122Z,2.85
2022-10-31T09:44:15.359Z,2.28
2022-10-31T09:47:22.332Z,2.58
2022-10-31T09:50:03.997Z,2.85
2022-10-31T09:52:35.285Z,2.42
2022-10-31T09:55:10.304Z,2.83
2022-10-31T09:57:38.745Z,5.18
2022-10-31T10:00:16.900Z,2.90
2022-10-31T10:03:06.432Z,3.22
2022-10-31T10:06:18.807Z,3.05
2022-10-31T10:08:46.353Z,3.05
2022-10-31T10:11:31.304Z,3.00
2022-10-31T10:14:10.225Z,3.03
2022-10-31T10:17:13.468Z,3.42
2022-10-31T10:19:56.701Z,3.10
2022-10-31T10:22:56.306Z,3.45
2022-10-31T10:25:55.309Z,4.05
2022-10-31T10:28:39.316Z,3.72
2022-10-31T10:31:25.656Z,5.22
2022-10-31T10:34:07.826Z,4.25
2022-10-31T10:37:06.288Z,4.32
2022-10-31T10:39:49.116Z,4.72
2022-10-31T10:42:35.931Z,3.75
2022-10-31T10:45:38.580Z,3.38
2022-10-31T10:48:40.578Z,3.95
2022-10-31T10:51:38.824Z,4.47
2022-10-31T10:54:40.027Z,5.15
2022-10-31T10:57:19.129Z,5.95
2022-10-31T10:59:47.540Z,5.60
2022-10-31T11:02:27.163Z,6.45
2022-10-31T11:04:57.996Z,3.90
2022-10-31T11:07:25.529Z,3.92
2022-10-31T11:09:52.512Z,5.63
2022-10-31T11:12:31.074Z,4.05
2022-10-31T11:15:05.020Z,4.80
2022-10-31T11:17:41.334Z,5.80
2022-10-31T11:20:17.930Z,5.07
2022-10-31T11:22:48.745Z,5.63
2022-10-31T11:25:23.770Z,5.07
2022-10-31T11:28:10.668Z,5.03
2022-10-31T11:30:56.157Z,4.75
2022-10-31T11:33:33.124Z,5.15
2022-10-31T11:36:04.709Z,5.00
2022-10-31T11:38:41.667Z,5.25
2022-10-31T11:41:42.343Z,5.93
2022-10-31T11:44:29.200Z,7.10
2022-10-31T11:47:02.888Z,6.72
2022-10-31T11:49:50.554Z,8.05
2022-10-31T11:52:28.684Z,5.07
2022-10-31T11:55:15.045Z,7.28
2022-10-31T11:57:48.422Z,6.22
2022-10-31T12:00:34.474Z,5.97
2022-10-31T12:03:28.617Z,4.40
2022-10-31T12:06:12.313Z,4.60
2022-10-31T12:08:42.486Z,5.40
2022-10-31T12:11:31.828Z,6.22
2022-10-31T12:14:33.155Z,5.93
2022-10-31T12:17:16.137Z,6.35
2022-10-31T12:20:15.303Z,6.85
2022-10-31T12:23:03.904Z,8.15
2022-10-31T12:26:38.102Z,5.28
2022-10-31T12:29:28.278Z,6.55
2022-10-31T12:32:17.209Z,6.55
2022-10-31T12:35:29.543Z,8.27
2022-10-31T12:38:33.944Z,5.20
2022-10-31T12:41:09.604Z,8.25
2022-10-31T12:43:57.382Z,5.07
2022-10-31T12:46:55.557Z,6.90
2022-10-31T12:50:12.820Z,5.80
2022-10-31T12:53:15.491Z,5.47
2022-10-31T12:56:06.760Z,7.28
2022-10-31T12:58:46.702Z,4.88
2022-10-31T13:01:34.534Z,4.72
2022-10-31T13:04:13.020Z,5.80
2022-10-31T13:06:52.278Z,5.50
2022-10-31T13:09:40.073Z,4.78
2022-10-31T13:12:20.345Z,5.80
2022-10-31T13:14:55.803Z,5.38
2022-10-31T13:17:33.156Z,5.60
2022-10-31T13:20:55.963Z,5.60
2022-10-31T13:26:34.462Z,5.78
2022-10-31T13:29:21.798Z,5.60
2022-10-31T13:31:49.229Z,5.50
2022-10-31T13:34:28.020Z,5.47
2022-10-31T13:37:14.979Z,4.63
2022-10-31T13:40:30.685Z,3.85
2022-10-31T13:43:24.708Z,3.88
2022-10-31T13:45:57.060Z,5.60
2022-10-31T13:48:26.861Z,4.75
2022-10-31T13:51:04.862Z,4.97
2022-10-31T13:53:41.985Z,5.18
2022-10-31T13:56:19.345Z,4.53
2022-10-31T13:59:11.507Z,5.03
2022-10-31T14:01:57.411Z,4.25
2022-10-31T14:04:38.585Z,4.72
2022-10-31T14:07:18.662Z,6.20
2022-10-31T14:10:24.018Z,5.22
2022-10-31T14:12:51.712Z,5.35
2022-10-31T14:15:26.194Z,4.80
2022-10-31T14:17:59.425Z,4.95
2022-10-31T14:20:41.162Z,4.63
2022-10-31T14:23:45.516Z,4.65
2022-10-31T14:26:33.426Z,7.03
2022-10-31T14:29:34.893Z,6.18
2022-10-31T14:32:15.664Z,6.23
2022-10-31T14:34:45.037Z,5.63
2022-10-31T14:37:24.491Z,6.65
2022-10-31T14:40:09.716Z,7.47
2022-10-31T14:43:02.041Z,6.18
2022-10-31T14:45:44.408Z,7.72
2022-10-31T14:51:01.149Z,5.00
2022-10-31T14:53:36.403Z,5.35
2022-10-31T14:56:07.082Z,6.43
2022-10-31T14:58:37.099Z,5.82
2022-10-31T15:01:06.080Z,6.85
2022-10-31T15:03:44.110Z,5.50
2022-10-31T15:06:19.581Z,6.90
2022-10-31T15:08:55.790Z,5.40
2022-10-31T15:11:28.554Z,4.70
2022-10-31T15:13:59.218Z,5.05
2022-10-31T15:19:09.005Z,6.35
2022-10-31T15:21:43.934Z,5.77
2022-10-31T15:24:19.488Z,6.88
2022-10-31T15:26:51.807Z,4.82
2022-10-31T15:29:23.686Z,5.82
2022-10-31T15:31:57.125Z,5.07
2022-10-31T15:34:32.176Z,5.80
2022-10-31T15:36:59.300Z,5.63
2022-10-31T15:39:26.532Z,4.53
2022-10-31T15:42:00.901Z,6.10
2022-10-31T15:44:37.909Z,8.32
2022-10-31T15:47:16.905Z,6.05
2022-10-31T15:49:55.139Z,6.45
2022-10-31T15:52:41.172Z,7.13
2022-10-31T15:55:12.073Z,5.97
2022-10-31T15:57:49.205Z,7.63
2022-10-31T16:00:23.329Z,5.63
2022-10-31T16:02:50.603Z,9.77
2022-10-31T16:05:21.097Z,8.55
2022-10-31T16:07:53.310Z,7.43
2022-10-31T16:10:27.785Z,7.70
2022-10-31T16:12:55.564Z,8.32
2022-10-31T16:15:23.151Z,8.05
2022-10-31T16:17:52.546Z,8.82
2022-10-31T16:20:38.729Z,9.52
2022-10-31T16:23:06.168Z,10.23
2022-10-31T16:25:39.463Z,12.15
2022-10-31T16:28:27.128Z,10.07
2022-10-31T16:30:58.975Z,8.63
2022-10-31T16:33:37.403Z,8.68
2022-10-31T16:36:35.347Z,13.90
2022-10-31T16:39:03.867Z,15.05
2022-10-31T16:41:31.311Z,12.70
2022-10-31T16:43:58.512Z,11.13
2022-10-31T16:46:28.447Z,15.50
2022-10-31T16:48:56.187Z,11.82
2022-10-31T16:51:23.202Z,9.88
2022-10-31T16:53:54.457Z,11.27
2022-10-31T16:56:39.811Z,8.95
2022-10-31T16:59:16.060Z,9.82
2022-10-31T17:01:49.033Z,10.85
2022-10-31T17:04:16.621Z,8.10
2022-10-31T17:06:43.914Z,10.63
2022-10-31T17:09:11.216Z,7.22
2022-10-31T17:11:49.384Z,8.68
2022-10-31T17:14:19.296Z,8.15
2022-10-31T17:16:46.543Z,8.65
2022-10-31T17:19:13.595Z,7.18
2022-10-31T17:21:42.186Z,7.32
2022-10-31T17:24:14.323Z,8.07
2022-10-31T17:26:42.169Z,7.53
2022-10-31T17:29:09.439Z,9.23
2022-10-31T17:31:39.300Z,7.72
2022-10-31T17:34:08.611Z,8.25
2022-10-31T17:36:36.542Z,8.23
2022-10-31T17:39:07.521Z,8.45
2022-10-31T17:41:34.782Z,8.80
2022-10-31T17:44:02.217Z,8.27
2022-10-31T17:46:29.460Z,9.32
2022-10-31T17:48:56.696Z,7.90
2022-10-31T17:51:23.860Z,7.18
2022-10-31T17:53:51.174Z,7.07
2022-10-31T17:56:18.341Z,8.32
2022-10-31T17:58:45.849Z,8.23
2022-10-31T18:01:16.733Z,8.65
2022-10-31T18:03:44.493Z,7.97
2022-10-31T18:06:14.450Z,7.85
2022-10-31T18:08:42.245Z,9.95
2022-10-31T18:11:21.576Z,7.95
2022-10-31T18:13:55.343Z,7.90
2022-10-31T18:16:23.213Z,7.72
2022-10-31T18:18:53.626Z,8.65
2022-10-31T18:21:21.662Z,9.48
2022-10-31T18:23:48.787Z,9.82
2022-10-31T18:26:16.054Z,9.25
2022-10-31T18:28:43.184Z,11.02
2022-10-31T18:31:10.573Z,11.05
2022-10-31T18:33:37.964Z,8.98
2022-10-31T18:36:07.272Z,7.82
2022-10-31T18:38:38.661Z,10.93
2022-10-31T18:41:06.320Z,7.05
2022-10-31T18:43:33.738Z,8.25
2022-10-31T18:46:12.276Z,9.70
2022-10-31T18:48:42.218Z,8.90
2022-10-31T18:51:12.232Z,8.60
2022-10-31T18:53:39.307Z,9.82
2022-10-31T18:56:11.380Z,9.75
2022-10-31T18:58:38.606Z,9.60
2022-10-31T19:01:08.544Z,8.23
2022-10-31T19:03:36.600Z,11.38
2022-10-31T19:06:05.160Z,8.60
2022-10-31T19:08:32.648Z,10.13
2022-10-31T19:11:14.713Z,10.52
2022-10-31T19:16:14.905Z,7.95
2022-10-31T19:18:43.529Z,8.50
2022-10-31T19:21:17.038Z,8.93
2022-10-31T19:23:45.650Z,8.38
2022-10-31T19:26:13.643Z,9.77
2022-10-31T19:28:41.986Z,10.07
2022-10-31T19:31:10.460Z,10.23
2022-10-31T19:33:37.694Z,8.38
2022-10-31T19:36:10.425Z,8.88
2022-10-31T19:38:40.820Z,9.23
2022-10-31T19:41:16.651Z,11.73
2022-10-31T19:43:44.391Z,10.48
2022-10-31T19:46:22.282Z,9.60
2022-10-31T19:48:55.661Z,8.20
2022-10-31T19:51:23.049Z,10.45
2022-10-31T19:53:50.160Z,7.70
2022-10-31T19:56:23.933Z,8.35
2022-10-31T19:58:51.005Z,9.93
2022-10-31T20:01:24.027Z,8.48
2022-10-31T20:03:51.924Z,8.85
2022-10-31T20:06:30.628Z,8.55
2022-10-31T20:08:58.296Z,11.57
2022-10-31T20:11:28.024Z,53.33
2022-10-31T20:13:56.864Z,29.88
2022-10-31T20:16:24.251Z,20.30
2022-10-31T20:18:51.495Z,14.80
2022-10-31T20:21:24.965Z,12.07
2022-10-31T20:24:01.830Z,10.27
2022-10-31T20:26:30.982Z,7.40
2022-10-31T20:29:00.192Z,7.80
2022-10-31T20:31:33.020Z,5.60
2022-10-31T20:34:00.589Z,6.03
2022-10-31T20:36:29.618Z,6.75
2022-10-31T20:38:57.349Z,6.78
2022-10-31T20:41:25.308Z,6.88
2022-10-31T20:43:52.851Z,5.38
2022-10-31T20:46:26.246Z,7.72
2022-10-31T20:48:54.707Z,4.50
2022-10-31T20:51:28.721Z,5.03
2022-10-31T20:53:58.139Z,4.35
2022-10-31T20:56:27.960Z,7.95
2022-10-31T20:58:56.545Z,6.35
2022-10-31T21:01:28.011Z,10.57
2022-10-31T21:03:55.584Z,7.53
2022-10-31T21:06:23.797Z,8.18
2022-10-31T21:08:52.099Z,8.32
2022-10-31T21:11:21.960Z,7.47
2022-10-31T21:13:50.492Z,13.77
2022-10-31T21:16:31.188Z,9.63
2022-10-31T21:19:01.280Z,9.55
2022-10-31T21:21:36.253Z,8.77
2022-10-31T21:24:12.123Z,9.35
2022-10-31T21:26:43.789Z,8.52
2022-10-31T21:29:12.658Z,6.90
2022-10-31T21:31:41.258Z,7.03
2022-10-31T21:34:09.291Z,7.13
2022-10-31T21:36:37.064Z,6.45
2022-10-31T21:39:07.473Z,9.43
2022-10-31T21:41:34.772Z,8.55
2022-10-31T21:44:02.260Z,8.48
2022-10-31T21:46:32.441Z,7.55
2022-10-31T21:49:02.389Z,8.32
2022-10-31T21:51:32.946Z,7.32
2022-10-31T21:54:21.039Z,7.68
2022-10-31T21:56:48.468Z,7.13
2022-10-31T21:59:15.582Z,8.75
2022-10-31T22:01:42.892Z,7.97
2022-10-31T22:04:10.480Z,9.98
2022-10-31T22:06:38.210Z,8.75
2022-10-31T22:09:08.067Z,9.68
2022-10-31T22:11:36.163Z,9.77
2022-10-31T22:14:04.487Z,8.45
2022-10-31T22:16:35.919Z,9.50
2022-10-31T22:19:06.011Z,7.72
2022-10-31T22:21:46.654Z,9.30
2022-10-31T22:24:15.212Z,10.32
2022-10-31T22:26:42.455Z,8.95
2022-10-31T22:29:18.733Z,8.82
2022-10-31T22:31:53.525Z,8.73
2022-10-31T22:34:24.591Z,8.32
2022-10-31T22:36:54.636Z,9.52
2022-10-31T22:39:21.865Z,8.05
2022-10-31T22:41:48.981Z,8.90
2022-10-31T22:44:16.186Z,7.20
2022-10-31T22:46:43.339Z,7.68
2022-10-31T22:49:15.115Z,9.10
2022-10-31T22:54:15.440Z,8.10
2022-10-31T22:56:42.696Z,9.10
2022-10-31T22:59:17.164Z,6.93
2022-10-31T23:01:46.042Z,6.82
2022-10-31T23:04:16.193Z,9.15
2022-10-31T23:06:43.700Z,6.28
2022-10-31T23:09:15.892Z,7.22
2022-10-31T23:11:43.492Z,7.40
2022-10-31T23:14:21.024Z,7.68
2022-10-31T23:16:56.702Z,6.75
2022-10-31T23:19:27.818Z,7.18
2022-10-31T23:22:03.088Z,9.60
2022-10-31T23:24:34.226Z,7.13
2022-10-31T23:27:09.262Z,9.38
2022-10-31T23:29:46.884Z,9.93
2022-10-31T23:32:25.164Z,11.35
2022-10-31T23:34:59.161Z,13.32
2022-10-31T23:37:31.702Z,13.88
2022-10-31T23:39:59.021Z,7.53
2022-10-31T23:42:27.841Z,7.28
2022-10-31T23:44:55.148Z,7.28
2022-10-31T23:47:23.260Z,10.40
2022-10-31T23:49:51.025Z,24.80
2022-10-31T23:52:19.113Z,8.70
2022-10-31T23:54:46.337Z,9.43
2022-10-31T23:57:15.395Z,7.82
2022-10-31T23:59:42.524Z,12.30
